createdAt,value
2022-12-04T00:01:58.508Z,35.45
2022-12-04T00:04:25.136Z,19.65
2022-12-04T00:06:58.621Z,29.67
2022-12-04T00:09:25.694Z,35.17
2022-12-04T00:11:52.136Z,40.47
2022-12-04T00:14:19.100Z,38.92
2022-12-04T00:16:45.842Z,38.95
2022-12-04T00:19:12.429Z,27.30
2022-12-04T00:21:38.982Z,34.33
2022-12-04T00:24:05.969Z,41.05
2022-12-04T00:26:32.502Z,40.33
2022-12-04T00:28:59.098Z,34.72
2022-12-04T00:31:28.214Z,30.95
2022-12-04T00:33:55.416Z,34.42
2022-12-04T00:36:24.598Z,44.67
2022-12-04T00:38:51.899Z,43.03
2022-12-04T00:41:21.159Z,47.78
2022-12-04T00:43:47.780Z,38.63
2022-12-04T00:46:15.457Z,44.40
2022-12-04T00:48:42.885Z,44.55
2022-12-04T00:51:15.874Z,40.45
2022-12-04T00:53:42.884Z,38.80
2022-12-04T00:56:15.012Z,28.92
2022-12-04T00:58:42.782Z,43.63
2022-12-04T01:01:15.798Z,41.22
2022-12-04T01:03:43.387Z,38.58
2022-12-04T01:06:20.828Z,41.15
2022-12-04T01:08:48.112Z,41.72
2022-12-04T01:11:14.547Z,41.50
2022-12-04T01:13:40.947Z,35.95
2022-12-04T01:16:07.738Z,44.53
2022-12-04T01:18:34.347Z,45.22
2022-12-04T01:21:00.812Z,42.35
2022-12-04T01:23:27.222Z,33.03
2022-12-04T01:25:56.003Z,31.20
2022-12-04T01:28:23.002Z,42.75
2022-12-04T01:31:03.189Z,40.58
2022-12-04T01:33:30.250Z,32.95
2022-12-04T01:35:59.181Z,29.17
2022-12-04T01:38:26.188Z,45.08
2022-12-04T01:40:53.230Z,43.00
2022-12-04T01:43:20.178Z,44.65
2022-12-04T01:45:51.471Z,43.53
2022-12-04T01:48:32.019Z,27.75
2022-12-04T01:51:26.814Z,40.63
2022-12-04T01:53:57.423Z,28.17
2022-12-04T01:56:31.616Z,29.05
2022-12-04T01:59:01.573Z,32.90
2022-12-04T02:01:31.910Z,31.42
2022-12-04T02:04:02.212Z,35.53
2022-12-04T02:06:28.608Z,30.58
2022-12-04T02:08:55.304Z,26.23
2022-12-04T02:11:46.562Z,42.17
2022-12-04T02:14:44.399Z,41.08
2022-12-04T02:17:18.936Z,36.78
2022-12-04T02:20:09.596Z,39.35
2022-12-04T02:22:35.933Z,30.55
2022-12-04T02:25:21.467Z,40.47
2022-12-04T02:27:54.116Z,34.42
2022-12-04T02:30:20.753Z,38.33
2022-12-04T02:32:59.776Z,34.03
2022-12-04T02:35:40.642Z,44.95
2022-12-04T02:38:13.919Z,35.60
2022-12-04T02:40:56.506Z,44.45
2022-12-04T02:43:37.912Z,29.60
2022-12-04T02:46:13.662Z,46.33
2022-12-04T02:48:43.911Z,44.83
2022-12-04T02:51:14.807Z,45.50
2022-12-04T02:53:47.371Z,22.50
2022-12-04T02:56:22.813Z,30.08
2022-12-04T02:59:00.004Z,46.95
2022-12-04T03:01:32.390Z,37.28
2022-12-04T03:04:08.462Z,20.50
2022-12-04T03:06:39.286Z,43.65
2022-12-04T03:09:15.827Z,42.63
2022-12-04T03:11:49.917Z,32.20
2022-12-04T03:14:25.566Z,43.13
2022-12-04T03:16:57.341Z,51.13
2022-12-04T03:19:28.243Z,48.45
2022-12-04T03:22:00.011Z,28.27
2022-12-04T03:24:34.163Z,30.15
2022-12-04T03:27:03.656Z,41.88
2022-12-04T03:29:42.913Z,41.17
2022-12-04T03:32:15.871Z,42.25
2022-12-04T03:34:58.894Z,44.03
2022-12-04T03:37:49.522Z,39.15
2022-12-04T03:40:28.793Z,41.88
2022-12-04T03:43:01.834Z,30.60
2022-12-04T03:45:39.193Z,42.97
2022-12-04T03:48:16.764Z,44.80
2022-12-04T03:51:17.879Z,40.45
2022-12-04T03:54:05.082Z,41.58
2022-12-04T03:56:38.641Z,44.75
2022-12-04T03:59:11.118Z,37.05
2022-12-04T04:01:43.176Z,40.03
2022-12-04T04:04:14.725Z,38.22
2022-12-04T04:06:47.228Z,45.53
2022-12-04T04:09:19.143Z,35.67
2022-12-04T04:11:54.835Z,46.15
2022-12-04T04:14:49.638Z,39.92
2022-12-04T04:17:39.144Z,35.03
2022-12-04T04:20:35.445Z,36.17
2022-12-04T04:23:24.292Z,47.38
2022-12-04T04:25:53.476Z,47.50
2022-12-04T04:28:28.669Z,53.22
2022-12-04T04:31:12.160Z,26.90
2022-12-04T04:33:49.179Z,34.30
2022-12-04T04:36:43.334Z,39.22
2022-12-04T04:39:36.307Z,38.80
2022-12-04T04:45:05.426Z,33.97
2022-12-04T04:47:46.129Z,44.72
2022-12-04T04:50:15.094Z,35.22
2022-12-04T04:52:47.003Z,41.15
2022-12-04T04:55:14.932Z,34.63
2022-12-04T04:57:41.456Z,33.20
2022-12-04T05:00:11.912Z,44.92
2022-12-04T05:02:38.462Z,35.80
2022-12-04T05:05:05.841Z,40.58
2022-12-04T05:07:32.335Z,48.53
2022-12-04T05:09:59.270Z,32.15
2022-12-04T05:12:25.912Z,36.15
2022-12-04T05:14:52.583Z,41.78
2022-12-04T05:17:19.466Z,37.53
2022-12-04T05:19:56.227Z,31.45
2022-12-04T05:22:26.717Z,44.60
2022-12-04T05:24:54.177Z,44.85
2022-12-04T05:27:21.723Z,28.63
2022-12-04T05:29:48.860Z,43.15
2022-12-04T05:32:15.727Z,47.35
2022-12-04T05:34:42.426Z,40.45
2022-12-04T05:37:08.895Z,43.03
2022-12-04T05:39:35.671Z,27.02
2022-12-04T05:42:02.089Z,33.25
2022-12-04T05:44:28.464Z,45.53
2022-12-04T05:46:54.980Z,43.35
2022-12-04T05:49:21.498Z,48.45
2022-12-04T05:51:50.577Z,38.60
2022-12-04T05:54:18.954Z,36.88
2022-12-04T05:56:45.827Z,25.38
2022-12-04T05:59:12.956Z,36.83
2022-12-04T06:01:39.845Z,41.50
2022-12-04T06:04:06.399Z,41.20
2022-12-04T06:06:32.921Z,38.60
2022-12-04T06:09:00.092Z,40.15
2022-12-04T06:11:34.822Z,31.05
2022-12-04T06:14:04.169Z,40.35
2022-12-04T06:16:36.414Z,41.58
2022-12-04T06:19:06.899Z,39.53
2022-12-04T06:21:35.391Z,36.75
2022-12-04T06:24:02.374Z,34.00
2022-12-04T06:26:29.027Z,47.90
2022-12-04T06:28:56.864Z,43.58
2022-12-04T06:31:24.187Z,43.03
2022-12-04T06:33:51.123Z,28.10
2022-12-04T06:36:21.093Z,27.42
2022-12-04T06:38:49.220Z,44.03
2022-12-04T06:41:17.875Z,39.30
2022-12-04T06:43:44.744Z,36.10
2022-12-04T06:46:18.747Z,43.42
2022-12-04T06:48:45.578Z,39.80
2022-12-04T06:51:17.532Z,27.92
2022-12-04T06:53:44.726Z,27.40
2022-12-04T06:56:16.247Z,41.17
2022-12-04T06:58:42.741Z,39.20
2022-12-04T07:01:12.141Z,38.58
2022-12-04T07:08:38.599Z,39.22
2022-12-04T07:11:05.539Z,33.55
2022-12-04T07:13:31.915Z,40.38
2022-12-04T07:16:03.032Z,35.05
2022-12-04T07:18:31.070Z,37.97
2022-12-04T07:20:57.912Z,39.08
2022-12-04T07:23:24.469Z,41.97
2022-12-04T07:25:51.039Z,30.73
2022-12-04T07:28:17.543Z,29.13
2022-12-04T07:30:44.611Z,31.38
2022-12-04T07:33:11.084Z,33.95
2022-12-04T07:35:37.505Z,35.60
2022-12-04T07:38:03.907Z,31.90
2022-12-04T07:40:30.816Z,43.28
2022-12-04T07:42:57.299Z,41.53
2022-12-04T07:45:23.841Z,44.15
2022-12-04T07:47:50.230Z,38.45
2022-12-04T07:50:16.814Z,34.92
2022-12-04T07:52:43.281Z,40.65
2022-12-04T07:55:09.868Z,37.33
2022-12-04T07:57:36.444Z,40.28
2022-12-04T08:00:03.809Z,40.33
2022-12-04T08:05:05.102Z,32.67
2022-12-04T08:07:32.261Z,41.80
2022-12-04T08:09:58.814Z,39.78
2022-12-04T08:12:25.310Z,43.83
2022-12-04T08:14:51.774Z,36.00
2022-12-04T08:17:18.361Z,43.17
2022-12-04T08:19:44.825Z,28.30
2022-12-04T08:22:11.313Z,44.33
2022-12-04T08:24:37.785Z,40.20
2022-12-04T08:27:04.483Z,48.17
2022-12-04T08:29:30.926Z,36.50
2022-12-04T08:31:57.385Z,39.58
2022-12-04T08:34:23.900Z,37.20
2022-12-04T08:36:50.452Z,26.80
2022-12-04T08:39:16.910Z,30.33
2022-12-04T08:41:43.413Z,40.53
2022-12-04T08:44:10.243Z,36.15
2022-12-04T08:46:37.019Z,40.22
2022-12-04T08:49:03.565Z,39.72
2022-12-04T08:51:32.274Z,37.17
2022-12-04T08:54:01.918Z,34.38
2022-12-04T08:56:30.637Z,41.47
2022-12-04T08:58:57.679Z,30.17
2022-12-04T09:01:25.718Z,30.63
2022-12-04T09:03:52.766Z,30.20
2022-12-04T09:06:19.705Z,38.35
2022-12-04T09:08:46.698Z,34.80
2022-12-04T09:11:16.873Z,32.47
2022-12-04T09:13:44.571Z,36.60
2022-12-04T09:16:14.762Z,19.52
2022-12-04T09:18:41.400Z,28.80
2022-12-04T09:21:11.553Z,32.47
2022-12-04T09:23:39.395Z,42.72
2022-12-04T09:26:15.302Z,37.60
2022-12-04T09:28:41.716Z,27.23
2022-12-04T09:31:08.220Z,43.42
2022-12-04T09:33:34.744Z,40.30
2022-12-04T09:36:02.845Z,30.50
2022-12-04T09:38:30.388Z,36.28
2022-12-04T09:41:30.052Z,32.17
2022-12-04T09:44:10.440Z,39.53
2022-12-04T09:46:45.495Z,24.90
2022-12-04T09:49:17.121Z,24.27
2022-12-04T09:51:43.903Z,40.35
2022-12-04T09:54:18.514Z,41.47
2022-12-04T09:56:53.448Z,37.78
2022-12-04T09:59:25.448Z,35.80
2022-12-04T10:01:58.633Z,28.70
2022-12-04T10:04:25.545Z,37.88
2022-12-04T10:07:10.995Z,29.48
2022-12-04T10:09:55.135Z,34.45
2022-12-04T10:12:44.760Z,30.55
2022-12-04T10:15:29.617Z,41.25
2022-12-04T10:18:23.860Z,37.80
2022-12-04T10:21:04.771Z,30.52
2022-12-04T10:23:40.711Z,27.13
2022-12-04T10:26:16.959Z,34.72
2022-12-04T10:28:55.745Z,34.15
2022-12-04T10:31:24.535Z,18.02
2022-12-04T10:33:55.755Z,29.27
2022-12-04T10:36:28.082Z,22.25
2022-12-04T10:39:14.182Z,14.98
2022-12-04T10:41:52.254Z,23.42
2022-12-04T10:44:22.032Z,28.05
2022-12-04T10:46:50.995Z,17.08
2022-12-04T10:49:22.788Z,26.42
2022-12-04T10:51:49.600Z,18.80
2022-12-04T10:54:26.950Z,16.42
2022-12-04T10:57:08.220Z,26.42
2022-12-04T10:59:35.477Z,26.25
2022-12-04T11:02:22.524Z,23.17
2022-12-04T11:07:31.894Z,25.90
2022-12-04T11:10:03.337Z,15.70
2022-12-04T11:12:32.112Z,15.98
2022-12-04T11:15:12.350Z,18.63
2022-12-04T11:17:39.231Z,25.23
2022-12-04T11:20:09.414Z,19.98
2022-12-04T11:22:48.070Z,25.77
2022-12-04T11:25:18.861Z,21.17
2022-12-04T11:27:55.719Z,20.92
2022-12-04T11:30:29.571Z,16.98
2022-12-04T11:32:57.152Z,19.77
2022-12-04T11:35:26.118Z,19.27
2022-12-04T11:37:59.160Z,19.92
2022-12-04T11:40:26.918Z,24.38
2022-12-04T11:43:25.268Z,12.23
2022-12-04T11:46:00.157Z,13.23
2022-12-04T11:48:29.113Z,17.88
2022-12-04T11:51:21.456Z,14.75
2022-12-04T11:53:55.715Z,15.93
2022-12-04T11:56:46.188Z,15.15
2022-12-04T11:59:12.650Z,16.35
2022-12-04T12:02:11.194Z,17.27
2022-12-04T12:04:49.895Z,20.80
2022-12-04T12:07:41.287Z,14.07
2022-12-04T12:10:17.435Z,16.70
2022-12-04T12:13:03.543Z,16.65
2022-12-04T12:15:48.746Z,14.20
2022-12-04T12:18:40.957Z,17.98
2022-12-04T12:21:14.426Z,15.45
2022-12-04T12:24:08.541Z,15.15
2022-12-04T12:27:02.839Z,19.00
2022-12-04T12:29:48.205Z,13.27
2022-12-04T12:32:40.112Z,18.30
2022-12-04T12:35:29.901Z,16.35
2022-12-04T12:38:01.501Z,15.43
2022-12-04T12:40:44.740Z,17.77
2022-12-04T12:43:31.825Z,16.38
2022-12-04T12:46:27.585Z,22.02
2022-12-04T12:49:06.406Z,15.25
2022-12-04T12:51:58.458Z,17.48
2022-12-04T12:54:53.406Z,14.63
2022-12-04T12:57:37.587Z,12.48
2022-12-04T13:00:15.573Z,14.73
2022-12-04T13:03:04.029Z,11.95
2022-12-04T13:05:37.264Z,14.32
2022-12-04T13:08:27.675Z,18.38
2022-12-04T13:11:13.463Z,14.68
2022-12-04T13:14:00.927Z,15.98
2022-12-04T13:16:40.642Z,13.30
2022-12-04T13:19:07.104Z,17.20
2022-12-04T13:21:37.438Z,19.05
2022-12-04T13:24:37.659Z,15.13
2022-12-04T13:27:34.701Z,16.15
2022-12-04T13:30:09.842Z,13.98
2022-12-04T13:32:57.696Z,12.88
2022-12-04T13:36:01.979Z,15.48
2022-12-04T13:38:49.911Z,14.90
2022-12-04T13:41:23.958Z,14.68
2022-12-04T13:43:53.030Z,18.25
2022-12-04T13:46:31.366Z,15.43
2022-12-04T13:49:08.613Z,15.85
2022-12-04T13:51:39.051Z,16.42
2022-12-04T13:54:11.759Z,15.32
2022-12-04T13:56:40.671Z,20.52
2022-12-04T13:59:36.097Z,22.88
2022-12-04T14:02:21.303Z,14.90
2022-12-04T14:05:01.873Z,20.08
2022-12-04T14:07:38.811Z,22.58
2022-12-04T14:10:07.587Z,32.97
2022-12-04T14:12:39.049Z,17.52
2022-12-04T14:15:38.994Z,17.90
2022-12-04T14:18:28.200Z,17.80
2022-12-04T14:21:05.424Z,24.45
2022-12-04T14:23:41.014Z,20.58
2022-12-04T14:26:21.975Z,22.88
2022-12-04T14:28:48.879Z,24.30
2022-12-04T14:31:24.037Z,13.15
2022-12-04T14:33:56.180Z,22.00
2022-12-04T14:36:33.352Z,17.08
2022-12-04T14:39:24.288Z,21.52
2022-12-04T14:41:52.173Z,23.15
2022-12-04T14:44:27.347Z,22.45
2022-12-04T14:46:57.541Z,25.90
2022-12-04T14:50:01.382Z,15.68
2022-12-04T14:53:09.272Z,13.07
2022-12-04T14:56:07.434Z,25.88
2022-12-04T14:58:37.665Z,21.77
2022-12-04T15:01:15.993Z,9.38
2022-12-04T15:03:45.919Z,22.55
2022-12-04T15:06:21.595Z,28.08
2022-12-04T15:09:19.076Z,24.70
2022-12-04T15:12:08.934Z,22.65
2022-12-04T15:14:51.323Z,36.45
2022-12-04T15:17:18.777Z,38.15
2022-12-04T15:19:45.779Z,31.55
2022-12-04T15:22:20.599Z,20.58
2022-12-04T15:24:47.054Z,32.13
2022-12-04T15:27:16.681Z,28.40
2022-12-04T15:29:48.229Z,30.70
2022-12-04T15:32:17.406Z,24.50
2022-12-04T15:34:48.872Z,22.80
2022-12-04T15:37:28.614Z,26.70
2022-12-04T15:39:56.502Z,31.08
2022-12-04T15:42:27.290Z,22.02
2022-12-04T15:45:01.185Z,36.85
2022-12-04T15:47:49.903Z,29.17
2022-12-04T15:50:16.375Z,29.48
2022-12-04T15:53:14.721Z,28.02
2022-12-04T15:55:56.872Z,45.63
2022-12-04T15:58:28.159Z,35.10
2022-12-04T16:01:05.627Z,31.45
2022-12-04T16:03:38.757Z,28.27
2022-12-04T16:06:29.742Z,33.50
2022-12-04T16:09:01.343Z,25.08
2022-12-04T16:11:37.246Z,33.38
2022-12-04T16:14:09.471Z,23.52
2022-12-04T16:16:38.421Z,24.15
2022-12-04T16:19:35.285Z,26.65
2022-12-04T16:22:03.660Z,22.63
2022-12-04T16:24:30.716Z,28.35
2022-12-04T16:27:00.081Z,25.02
2022-12-04T16:31:55.158Z,23.88
2022-12-04T16:34:26.074Z,24.45
2022-12-04T16:36:52.506Z,24.38
2022-12-04T16:39:18.977Z,24.30
2022-12-04T16:41:45.442Z,31.42
2022-12-04T16:44:15.511Z,26.98
2022-12-04T16:46:42.748Z,35.22
2022-12-04T16:49:12.860Z,28.40
2022-12-04T16:51:43.630Z,33.03
2022-12-04T16:54:12.105Z,29.33
2022-12-04T16:56:39.067Z,26.83
2022-12-04T16:59:11.593Z,18.48
2022-12-04T17:01:47.772Z,32.00
2022-12-04T17:04:15.916Z,28.00
2022-12-04T17:06:42.558Z,32.83
2022-12-04T17:09:09.639Z,29.80
2022-12-04T17:11:37.048Z,32.95
2022-12-04T17:14:07.380Z,31.05
2022-12-04T17:16:38.481Z,24.60
2022-12-04T17:19:05.157Z,29.33
2022-12-04T17:21:33.688Z,30.88
2022-12-04T17:24:01.010Z,31.73
2022-12-04T17:26:28.235Z,27.38
2022-12-04T17:28:54.673Z,21.05
2022-12-04T17:31:23.924Z,18.58
2022-12-04T17:33:50.864Z,22.95
2022-12-04T17:36:20.162Z,29.88
2022-12-04T17:38:47.116Z,24.85
2022-12-04T17:41:15.063Z,17.15
2022-12-04T17:43:43.528Z,34.58
2022-12-04T17:46:12.008Z,21.50
2022-12-04T17:48:38.928Z,25.67
2022-12-04T17:51:08.109Z,23.13
2022-12-04T17:53:35.126Z,27.38
2022-12-04T17:56:13.147Z,12.80
2022-12-04T17:58:40.207Z,27.52
2022-12-04T18:01:13.805Z,22.38
2022-12-04T18:03:41.374Z,21.67
2022-12-04T18:06:13.329Z,22.50
2022-12-04T18:08:55.081Z,15.93
2022-12-04T18:11:23.788Z,20.20
2022-12-04T18:13:56.209Z,24.27
2022-12-04T18:16:22.901Z,21.35
2022-12-04T18:18:50.807Z,18.52
2022-12-04T18:21:17.368Z,23.02
2022-12-04T18:23:46.396Z,19.48
2022-12-04T18:26:16.093Z,23.13
2022-12-04T18:28:43.407Z,27.17
2022-12-04T18:31:09.986Z,18.58
2022-12-04T18:33:38.918Z,29.55
2022-12-04T18:36:06.796Z,25.90
2022-12-04T18:38:33.226Z,29.42
2022-12-04T18:41:06.919Z,25.45
2022-12-04T18:43:45.155Z,31.98
2022-12-04T18:46:13.983Z,21.77
2022-12-04T18:48:42.763Z,23.90
2022-12-04T18:51:15.962Z,33.47
2022-12-04T18:53:43.251Z,30.30
2022-12-04T18:56:09.911Z,32.08
2022-12-04T18:58:36.457Z,29.70
2022-12-04T19:01:11.335Z,33.22
2022-12-04T19:03:38.312Z,34.92
2022-12-04T19:06:05.313Z,29.90
2022-12-04T19:08:34.346Z,30.08
2022-12-04T19:11:07.162Z,18.85
2022-12-04T19:13:34.146Z,27.13
2022-12-04T19:16:00.910Z,38.35
2022-12-04T19:18:27.575Z,33.30
2022-12-04T19:20:54.366Z,43.53
2022-12-04T19:23:22.791Z,25.10
2022-12-04T19:26:02.712Z,34.53
2022-12-04T19:28:29.907Z,34.42
2022-12-04T19:30:56.666Z,33.83
2022-12-04T19:33:24.109Z,36.15
2022-12-04T19:35:59.404Z,39.25
2022-12-04T19:38:26.891Z,35.75
2022-12-04T19:41:10.175Z,30.42
2022-12-04T19:43:38.599Z,36.95
2022-12-04T19:46:07.015Z,37.42
2022-12-04T19:48:33.990Z,33.95
2022-12-04T19:51:12.087Z,27.95
2022-12-04T19:53:41.156Z,37.13
2022-12-04T19:58:38.937Z,32.20
2022-12-04T20:01:07.806Z,30.85
2022-12-04T20:03:35.634Z,42.10
2022-12-04T20:06:07.833Z,38.30
2022-12-04T20:08:35.374Z,27.98
2022-12-04T20:11:05.712Z,37.13
2022-12-04T20:13:35.505Z,32.20
2022-12-04T20:16:05.154Z,23.80
2022-12-04T20:18:32.032Z,41.60
2022-12-04T20:21:00.779Z,34.53
2022-12-04T20:23:54.265Z,30.05
2022-12-04T20:26:26.318Z,39.85
2022-12-04T20:28:55.771Z,38.13
2022-12-04T20:31:28.823Z,22.40
2022-12-04T20:33:58.399Z,28.05
2022-12-04T20:36:27.741Z,37.50
2022-12-04T20:41:22.632Z,31.58
2022-12-04T20:43:49.297Z,34.20
2022-12-04T20:46:24.903Z,46.00
2022-12-04T20:48:53.384Z,26.58
2022-12-04T20:51:23.489Z,36.83
2022-12-04T20:53:50.839Z,28.20
2022-12-04T20:56:19.139Z,32.47
2022-12-04T20:58:45.899Z,37.40
2022-12-04T21:01:15.636Z,37.30
2022-12-04T21:03:43.124Z,35.90
2022-12-04T21:06:19.669Z,36.90
2022-12-04T21:08:53.300Z,31.48
2022-12-04T21:11:20.820Z,37.55
2022-12-04T21:14:05.973Z,39.28
2022-12-04T21:16:32.861Z,37.95
2022-12-04T21:18:59.338Z,34.75
2022-12-04T21:21:26.823Z,39.03
2022-12-04T21:23:53.390Z,37.45
2022-12-04T21:26:20.574Z,30.52
2022-12-04T21:28:47.515Z,36.10
2022-12-04T21:31:14.555Z,37.08
2022-12-04T21:33:41.038Z,33.75
2022-12-04T21:36:09.437Z,37.47
2022-12-04T21:38:37.995Z,24.25
2022-12-04T21:41:06.604Z,41.20
2022-12-04T21:43:34.068Z,34.78
2022-12-04T21:46:09.347Z,27.67
2022-12-04T21:48:36.421Z,37.85
2022-12-04T21:51:21.271Z,34.13
2022-12-04T21:53:54.751Z,36.30
2022-12-04T21:56:22.504Z,36.10
2022-12-04T21:58:49.307Z,40.97
2022-12-04T22:01:17.486Z,40.03
2022-12-04T22:03:44.656Z,29.67
2022-12-04T22:06:11.219Z,39.13
2022-12-04T22:08:39.888Z,36.63
2022-12-04T22:11:08.807Z,28.13
2022-12-04T22:13:36.535Z,31.40
2022-12-04T22:16:04.848Z,31.17
2022-12-04T22:18:31.722Z,38.15
2022-12-04T22:20:58.170Z,32.92
2022-12-04T22:23:24.611Z,36.17
2022-12-04T22:25:51.279Z,36.47
2022-12-04T22:28:18.344Z,37.83
2022-12-04T22:30:44.738Z,32.03
2022-12-04T22:33:11.246Z,40.45
2022-12-04T22:35:37.701Z,41.88
2022-12-04T22:38:04.117Z,35.85
2022-12-04T22:40:30.558Z,39.00
2022-12-04T22:42:56.926Z,32.85
2022-12-04T22:45:23.367Z,35.42
2022-12-04T22:47:49.758Z,34.70
2022-12-04T22:50:16.192Z,37.28
2022-12-04T22:52:42.817Z,36.65
2022-12-04T22:55:09.418Z,35.90
2022-12-04T22:57:36.003Z,35.60
2022-12-04T23:00:02.564Z,35.20
2022-12-04T23:02:29.062Z,30.25
2022-12-04T23:04:55.554Z,35.72
2022-12-04T23:07:22.203Z,35.90
2022-12-04T23:09:48.609Z,39.45
2022-12-04T23:12:15.634Z,32.88
2022-12-04T23:14:42.120Z,28.30
2022-12-04T23:17:08.601Z,30.15
2022-12-04T23:19:35.194Z,35.22
2022-12-04T23:22:01.690Z,30.60
2022-12-04T23:24:28.736Z,31.27
2022-12-04T23:26:55.318Z,32.83
2022-12-04T23:29:52.861Z,38.47
2022-12-04T23:32:08.142Z,30.70
2022-12-04T23:34:34.576Z,32.95
2022-12-04T23:37:00.957Z,35.25
2022-12-04T23:39:27.419Z,30.83
2022-12-04T23:41:53.878Z,29.70
2022-12-04T23:44:20.306Z,35.63
2022-12-04T23:46:46.844Z,31.35
2022-12-04T23:49:13.650Z,31.85
2022-12-04T23:51:40.110Z,31.27
2022-12-04T23:54:06.671Z,27.00
2022-12-04T23:56:33.116Z,32.83
2022-12-04T23:58:59.772Z,31.10
